createdAt,value
2022-12-09T02:15:55.101Z,15.73
2022-12-09T02:18:35.529Z,15.05
2022-12-09T02:21:10.691Z,10.15
2022-12-09T02:23:41.433Z,6.65
2022-12-09T02:26:25.953Z,14.85
2022-12-09T02:29:26.529Z,9.63
2022-12-09T02:32:22.172Z,12.10
2022-12-09T02:34:59.648Z,10.32
2022-12-09T02:37:55.415Z,10.18
2022-12-09T02:40:55.795Z,10.05
2022-12-09T02:43:26.838Z,7.25
2022-12-09T02:45:56.832Z,10.88
2022-12-09T02:48:40.324Z,10.05
2022-12-09T02:51:12.960Z,13.10
2022-12-09T02:56:09.585Z,12.48
2022-12-09T02:58:37.999Z,11.98
2022-12-09T03:01:07.370Z,13.05
2022-12-09T03:03:36.248Z,10.55
2022-12-09T03:06:10.503Z,11.88
2022-12-09T03:08:47.378Z,11.52
2022-12-09T03:11:19.350Z,12.27
2022-12-09T03:14:08.132Z,13.90
2022-12-09T03:16:52.990Z,15.82
2022-12-09T03:19:34.327Z,8.75
2022-12-09T03:22:06.549Z,12.05
2022-12-09T03:24:42.032Z,11.82
2022-12-09T03:27:15.746Z,10.00
2022-12-09T03:29:49.255Z,8.52
2022-12-09T03:32:20.538Z,7.95
2022-12-09T03:34:52.053Z,9.00
2022-12-09T03:37:21.915Z,10.68
2022-12-09T03:39:52.141Z,12.18
2022-12-09T03:42:27.268Z,10.35
2022-12-09T03:45:01.262Z,11.15
2022-12-09T03:47:33.255Z,7.72
2022-12-09T03:50:00.827Z,8.05
2022-12-09T03:52:39.694Z,14.38
2022-12-09T03:55:29.544Z,14.95
2022-12-09T03:58:00.808Z,9.38
2022-12-09T04:00:29.497Z,7.57
2022-12-09T04:02:59.219Z,9.82
2022-12-09T04:05:28.460Z,8.13
2022-12-09T04:07:56.424Z,11.88
2022-12-09T04:10:24.414Z,10.65
2022-12-09T04:12:52.046Z,10.88
2022-12-09T04:15:19.969Z,11.82
2022-12-09T04:17:47.853Z,7.07
2022-12-09T04:20:15.721Z,8.88
2022-12-09T04:22:43.412Z,7.50
2022-12-09T04:25:11.051Z,8.00
2022-12-09T04:27:38.428Z,9.85
2022-12-09T04:30:07.288Z,6.97
2022-12-09T04:32:35.336Z,11.13
2022-12-09T04:35:03.928Z,7.22
2022-12-09T04:37:32.129Z,9.52
2022-12-09T04:40:00.475Z,9.63
2022-12-09T04:42:29.192Z,10.73
2022-12-09T04:44:57.222Z,9.35
2022-12-09T04:47:24.772Z,9.15
2022-12-09T04:49:52.561Z,14.90
2022-12-09T04:52:20.588Z,12.07
2022-12-09T04:54:51.072Z,7.80
2022-12-09T04:57:20.213Z,11.95
2022-12-09T04:59:47.823Z,6.07
2022-12-09T05:02:15.658Z,20.73
2022-12-09T05:04:43.188Z,19.15
2022-12-09T05:07:11.972Z,16.65
2022-12-09T05:09:39.237Z,29.25
2022-12-09T05:12:07.445Z,46.78
2022-12-09T05:14:35.099Z,21.58
2022-12-09T05:17:03.958Z,16.95
2022-12-09T05:19:32.196Z,17.80
2022-12-09T05:22:00.542Z,13.38
2022-12-09T05:24:28.440Z,14.57
2022-12-09T05:26:56.046Z,10.32
2022-12-09T05:29:23.784Z,16.58
2022-12-09T05:31:52.532Z,12.60
2022-12-09T05:34:20.490Z,12.23
2022-12-09T05:36:48.777Z,15.60
2022-12-09T05:39:16.451Z,7.80
2022-12-09T05:41:44.129Z,9.77
2022-12-09T05:44:12.880Z,7.97
2022-12-09T05:46:41.092Z,11.52
2022-12-09T05:49:09.486Z,12.25
2022-12-09T05:51:37.922Z,11.02
2022-12-09T05:54:06.514Z,15.15
2022-12-09T05:56:34.555Z,9.73
2022-12-09T05:59:02.003Z,9.15
2022-12-09T06:01:30.182Z,8.57
2022-12-09T06:03:57.882Z,9.90
2022-12-09T06:06:28.420Z,9.35
2022-12-09T06:08:59.892Z,5.97
2022-12-09T06:11:28.173Z,7.22
2022-12-09T06:13:56.259Z,9.82
2022-12-09T06:16:24.900Z,6.65
2022-12-09T06:18:52.886Z,13.52
2022-12-09T06:21:21.852Z,8.95
2022-12-09T11:11:38.938Z,19.98
2022-12-09T11:14:22.372Z,26.60
2022-12-09T11:16:56.518Z,27.33
2022-12-09T11:19:39.072Z,26.15
2022-12-09T11:22:22.151Z,24.63
2022-12-09T11:24:56.730Z,21.95
2022-12-09T11:27:31.119Z,31.30
2022-12-09T11:30:14.119Z,28.88
2022-12-09T11:33:03.524Z,29.35
2022-12-09T11:35:43.699Z,31.85
2022-12-09T11:38:36.439Z,29.60
2022-12-09T11:41:10.025Z,23.77
2022-12-09T11:43:40.111Z,25.10
2022-12-09T11:46:21.522Z,26.58
2022-12-09T11:48:51.917Z,23.35
2022-12-09T11:51:31.463Z,25.52
2022-12-09T11:54:05.206Z,24.50
2022-12-09T11:56:35.780Z,23.63
2022-12-09T11:59:18.806Z,23.80
2022-12-09T12:02:08.194Z,24.33
2022-12-09T12:04:55.230Z,22.83
2022-12-09T12:07:30.815Z,21.55
2022-12-09T12:09:58.935Z,22.75
2022-12-09T12:12:45.524Z,22.52
2022-12-09T12:15:20.553Z,25.15
2022-12-09T12:17:53.303Z,24.98
2022-12-09T12:23:14.870Z,19.45
2022-12-09T12:26:04.756Z,14.88
2022-12-09T12:29:02.542Z,16.60
2022-12-09T12:31:45.441Z,18.77
2022-12-09T12:34:39.477Z,16.55
2022-12-09T12:37:25.074Z,21.05
2022-12-09T12:40:05.022Z,19.58
2022-12-09T12:43:14.906Z,19.15
2022-12-09T12:46:13.194Z,14.60
2022-12-09T12:48:58.913Z,19.95
2022-12-09T12:51:32.867Z,16.45
2022-12-09T12:54:16.439Z,18.73
2022-12-09T12:56:58.866Z,20.92
2022-12-09T12:59:44.620Z,20.13
2022-12-09T13:02:20.964Z,21.13
2022-12-09T13:05:24.859Z,18.00
2022-12-09T13:07:59.740Z,22.55
2022-12-09T13:10:42.250Z,18.58
2022-12-09T13:13:22.888Z,19.00
2022-12-09T13:15:53.990Z,17.63
2022-12-09T13:18:33.187Z,16.50
2022-12-09T13:21:02.440Z,15.43
2022-12-09T13:24:04.314Z,17.65
2022-12-09T13:26:41.368Z,17.30
2022-12-09T13:29:36.374Z,24.13
2022-12-09T13:32:19.018Z,22.67
2022-12-09T13:34:52.823Z,18.00
2022-12-09T13:37:48.164Z,22.05
2022-12-09T13:40:33.075Z,20.55
2022-12-09T13:43:02.813Z,19.20
2022-12-09T13:45:44.994Z,18.42
2022-12-09T13:48:17.004Z,22.42
2022-12-09T13:50:57.853Z,22.52
2022-12-09T13:53:34.671Z,21.15
2022-12-09T13:56:23.078Z,25.77
2022-12-09T13:59:03.983Z,23.75
2022-12-09T14:01:35.026Z,23.33
2022-12-09T14:04:08.585Z,22.77
2022-12-09T14:06:56.859Z,20.83
2022-12-09T14:09:33.382Z,25.48
2022-12-09T14:12:05.410Z,22.85
2022-12-09T14:14:33.433Z,21.85
2022-12-09T14:17:05.012Z,26.75
2022-12-09T14:19:46.865Z,21.17
2022-12-09T14:22:20.609Z,22.85
2022-12-09T14:24:51.677Z,22.65
2022-12-09T18:21:40.842Z,22.50
2022-12-09T18:24:08.771Z,34.38
2022-12-09T18:26:41.686Z,48.47
2022-12-09T18:29:10.985Z,52.30
2022-12-09T18:31:38.773Z,54.05
2022-12-09T18:34:06.145Z,33.10
2022-12-09T18:36:33.784Z,32.03
2022-12-09T18:39:01.049Z,36.58
2022-12-09T18:41:30.453Z,35.88
2022-12-09T18:43:59.987Z,31.98
2022-12-09T18:46:30.524Z,22.27
2022-12-09T18:49:00.029Z,25.27
2022-12-09T18:51:28.626Z,30.52
2022-12-09T18:53:58.764Z,26.88
2022-12-09T18:56:27.249Z,30.25
2022-12-09T18:59:11.000Z,33.50
2022-12-09T19:01:41.253Z,33.38
2022-12-09T19:04:35.298Z,33.22
2022-12-09T19:07:02.639Z,28.50
2022-12-09T19:09:33.612Z,32.28
2022-12-09T19:12:22.912Z,29.05
2022-12-09T19:14:50.970Z,29.80
2022-12-09T19:17:19.395Z,33.40
2022-12-09T19:19:47.555Z,27.15
2022-12-09T19:22:15.035Z,25.13
2022-12-09T19:24:43.304Z,24.30
2022-12-09T19:27:11.050Z,22.13
2022-12-09T19:29:39.785Z,27.05
2022-12-09T19:32:23.591Z,30.95
2022-12-09T19:34:54.636Z,32.83
2022-12-09T19:37:22.222Z,30.45
2022-12-09T19:39:50.404Z,35.20
2022-12-09T19:42:19.353Z,22.90
2022-12-09T19:45:07.701Z,31.13
2022-12-09T19:47:35.774Z,30.63
2022-12-09T19:50:03.106Z,28.83
2022-12-09T19:52:30.312Z,28.70
2022-12-09T19:54:57.375Z,29.75
2022-12-09T19:57:24.706Z,31.98
2022-12-09T19:59:51.924Z,31.88
2022-12-09T20:02:19.364Z,30.33
2022-12-09T20:04:51.392Z,25.65
2022-12-09T20:07:20.121Z,28.65
2022-12-09T20:09:47.599Z,30.05
2022-12-09T20:12:15.041Z,26.20
2022-12-09T20:14:43.290Z,24.65
2022-12-09T20:17:12.668Z,27.38
2022-12-09T20:19:39.575Z,26.80
2022-12-09T20:22:06.924Z,31.73
2022-12-09T20:24:36.005Z,44.63
2022-12-09T20:27:03.104Z,36.90
2022-12-09T20:29:35.727Z,34.35
2022-12-09T20:32:05.500Z,25.55
2022-12-09T20:34:32.301Z,34.15
2022-12-09T20:36:59.271Z,21.90
2022-12-09T20:39:32.100Z,38.60
2022-12-09T20:42:00.477Z,27.25
2022-12-09T20:44:27.793Z,32.72
2022-12-09T20:47:02.735Z,30.25
2022-12-09T20:49:30.567Z,23.20
2022-12-09T20:51:57.830Z,23.60
2022-12-09T20:54:25.158Z,28.45
2022-12-09T20:56:53.201Z,31.13
2022-12-09T20:59:20.184Z,24.50
2022-12-09T21:01:47.335Z,34.90
2022-12-09T21:04:15.556Z,32.08
2022-12-09T21:06:43.403Z,28.70
2022-12-09T21:09:14.819Z,19.17
2022-12-09T21:11:41.829Z,27.98
2022-12-09T21:14:09.867Z,24.90
2022-12-09T21:16:42.641Z,25.02
2022-12-09T21:19:13.063Z,27.10
2022-12-09T21:21:42.150Z,27.17
2022-12-09T21:24:13.138Z,27.05
2022-12-09T21:26:41.025Z,23.60
2022-12-09T21:29:08.474Z,24.85
2022-12-09T21:31:38.156Z,26.88
2022-12-09T21:34:06.461Z,25.27
2022-12-09T21:36:41.320Z,24.40
2022-12-09T21:39:10.908Z,31.92
2022-12-09T21:41:38.303Z,25.92
2022-12-09T21:44:06.937Z,26.58
2022-12-09T21:46:36.780Z,37.30
2022-12-09T21:49:06.066Z,31.98
2022-12-09T21:51:35.043Z,22.83
2022-12-09T21:54:02.545Z,22.85
2022-12-09T21:56:31.376Z,22.77
2022-12-09T21:58:59.412Z,25.35
2022-12-09T22:01:35.545Z,22.95
2022-12-09T22:04:04.681Z,24.50
2022-12-09T22:06:31.861Z,23.05
2022-12-09T22:09:00.346Z,28.40
2022-12-09T22:11:30.425Z,27.67
2022-12-09T22:13:59.115Z,18.15
2022-12-09T22:16:29.651Z,18.73
2022-12-09T22:18:58.776Z,26.95
2022-12-09T22:21:29.700Z,22.58
2022-12-09T22:23:59.491Z,20.23
2022-12-09T22:26:26.925Z,24.92
2022-12-09T22:28:54.802Z,27.95
2022-12-09T22:31:24.684Z,22.45
2022-12-09T22:33:53.908Z,21.92
2022-12-09T22:36:21.902Z,18.83
2022-12-09T22:38:49.020Z,26.58
2022-12-09T22:41:18.708Z,19.05
2022-12-09T22:43:48.452Z,20.33
2022-12-09T22:46:18.694Z,21.40
2022-12-09T22:48:46.161Z,22.08
2022-12-09T22:51:16.971Z,30.88
2022-12-09T22:53:45.698Z,22.27
2022-12-09T22:56:13.081Z,29.55
2022-12-09T22:58:40.529Z,22.73
2022-12-09T23:01:17.041Z,24.25
2022-12-09T23:03:45.065Z,25.38
2022-12-09T23:06:12.638Z,29.95
2022-12-09T23:08:41.595Z,23.38
2022-12-09T23:11:12.440Z,19.83
2022-12-09T23:13:41.373Z,21.08
2022-12-09T23:16:12.722Z,18.48
2022-12-09T23:18:40.443Z,24.55
2022-12-09T23:21:10.258Z,24.08
2022-12-09T23:23:37.616Z,20.67
2022-12-09T23:26:08.247Z,28.48
2022-12-09T23:28:41.877Z,23.95
2022-12-09T23:31:11.156Z,28.48
2022-12-09T23:33:39.765Z,34.35
2022-12-09T23:36:08.163Z,29.05
2022-12-09T23:38:36.094Z,28.33
2022-12-09T23:41:05.247Z,28.60
2022-12-09T23:43:33.943Z,31.88
2022-12-09T23:46:12.921Z,34.75
2022-12-09T23:48:43.529Z,33.22
2022-12-09T23:51:14.674Z,32.00
2022-12-09T23:53:43.686Z,24.33
2022-12-09T23:56:12.820Z,29.38
2022-12-09T23:58:41.512Z,18.00
